Time;durP1;ratioP1;P1;durP2;ratioP2;P2;SDS_P1;SDS_P2;PMS_P1;PMS_P2;Temp;Humidity;BMP_temperature;BMP_pressure;BME280_temperature;BME280_humidity;BME280_pressure;Samples;Min_cycle;Max_cycle;Signal;HPM_P1;HPM_P2
2023/06/12 00:00:21;;;;;;;8.07;5.73;;;18.90;99.90;;;;;;4147417;28;20219;-76
2023/06/12 00:02:23;;;;;;;9.43;5.47;;;18.80;99.90;;;;;;4148675;28;20218;-75
2023/06/12 00:04:25;;;;;;;7.00;5.37;;;18.80;99.90;;;;;;4149284;28;20238;-76
2023/06/12 00:06:28;;;;;;;8.30;5.47;;;18.80;99.90;;;;;;4149485;28;20246;-76
2023/06/12 00:08:33;;;;;;;6.37;4.93;;;18.70;99.90;;;;;;4147781;28;20224;-76
2023/06/12 00:10:35;;;;;;;7.50;5.27;;;18.70;99.90;;;;;;4145242;28;20217;-75
2023/06/12 00:12:37;;;;;;;8.57;5.27;;;18.70;99.90;;;;;;4149468;28;20310;-76
2023/06/12 00:14:39;;;;;;;6.80;5.07;;;18.60;99.90;;;;;;4146573;28;20235;-76
2023/06/12 00:16:41;;;;;;;6.03;4.93;;;18.60;99.90;;;;;;4145420;28;20249;-76
2023/06/12 00:18:44;;;;;;;6.17;4.90;;;18.50;99.90;;;;;;4147269;28;20811;-76
2023/06/12 00:20:46;;;;;;;8.20;5.50;;;18.50;99.90;;;;;;4147814;28;20313;-76
2023/06/12 00:22:50;;;;;;;7.00;4.93;;;18.50;99.90;;;;;;4147229;28;20222;-76
2023/06/12 00:24:53;;;;;;;7.13;5.33;;;18.40;99.90;;;;;;4147863;28;20235;-75
2023/06/12 00:26:55;;;;;;;5.90;5.00;;;18.40;99.90;;;;;;4148536;28;20215;-76
2023/06/12 00:28:57;;;;;;;7.37;5.23;;;18.40;99.90;;;;;;4146417;28;20733;-76
2023/06/12 00:30:59;;;;;;;6.73;4.87;;;18.30;99.90;;;;;;4149017;28;20312;-76
2023/06/12 00:33:01;;;;;;;6.80;4.97;;;18.30;99.90;;;;;;4144973;28;20217;-76
2023/06/12 00:35:04;;;;;;;7.87;5.23;;;18.30;99.90;;;;;;4145866;28;20758;-76
2023/06/12 00:37:07;;;;;;;6.97;5.00;;;18.20;99.90;;;;;;4147063;28;20662;-76
2023/06/12 00:39:09;;;;;;;6.90;5.00;;;18.20;99.90;;;;;;4147992;28;20210;-76
2023/06/12 00:41:12;;;;;;;6.13;5.10;;;18.20;99.90;;;;;;4150436;28;20646;-76
2023/06/12 00:43:15;;;;;;;7.47;4.47;;;18.10;99.90;;;;;;4147417;28;20272;-76
2023/06/12 00:45:18;;;;;;;8.13;4.90;;;18.10;99.90;;;;;;4146815;28;20321;-76
2023/06/12 00:47:20;;;;;;;6.83;5.17;;;18.10;99.90;;;;;;4144794;28;20395;-76
2023/06/12 00:49:22;;;;;;;8.10;5.67;;;18.10;99.90;;;;;;4146622;28;20242;-76
2023/06/12 00:51:27;;;;;;;6.60;5.03;;;18.10;99.90;;;;;;4148029;28;20678;-76
2023/06/12 00:53:29;;;;;;;7.43;4.97;;;18.00;99.90;;;;;;4147566;28;20245;-76
2023/06/12 00:55:32;;;;;;;6.80;5.20;;;18.00;99.90;;;;;;4144673;28;20225;-76
2023/06/12 00:57:36;;;;;;;6.50;4.90;;;17.90;99.90;;;;;;4147407;28;20213;-76
2023/06/12 00:59:38;;;;;;;8.03;4.73;;;17.90;99.90;;;;;;4145062;28;20219;-76
2023/06/12 01:01:40;;;;;;;7.33;4.80;;;17.90;99.90;;;;;;4143132;28;20303;-75
2023/06/12 01:03:44;;;;;;;6.10;4.70;;;17.90;99.90;;;;;;4146768;28;20232;-75
2023/06/12 01:05:47;;;;;;;6.50;4.80;;;17.80;99.90;;;;;;4140596;28;20234;-75
2023/06/12 01:07:55;;;;;;;6.70;4.87;;;17.80;99.90;;;;;;4145106;28;20214;-75
2023/06/12 01:10:04;;;;;;;5.57;4.60;;;17.80;99.90;;;;;;4143785;28;20218;-76
2023/06/12 01:12:08;;;;;;;6.27;4.30;;;17.70;99.90;;;;;;4147217;28;20299;-76
2023/06/12 01:14:16;;;;;;;6.03;4.90;;;17.70;99.90;;;;;;4143960;28;20242;-75
2023/06/12 01:16:18;;;;;;;7.57;4.80;;;17.60;99.90;;;;;;4141667;28;20211;-76
2023/06/12 01:18:21;;;;;;;6.87;4.80;;;17.60;99.90;;;;;;4148320;28;20211;-76
2023/06/12 01:20:22;;;;;;;7.80;5.10;;;17.60;99.90;;;;;;4140963;28;20210;-76
2023/06/12 01:22:29;;;;;;;5.73;4.83;;;17.60;99.90;;;;;;4144404;28;20220;-76
2023/06/12 01:24:57;;;;;;;8.97;4.73;;;17.50;99.90;;;;;;4145989;28;20293;-76
2023/06/12 01:27:27;;;;;;;7.83;5.20;;;17.50;99.90;;;;;;4144019;28;20329;-76
2023/06/12 01:29:47;;;;;;;7.83;5.63;;;17.50;99.90;;;;;;4147307;28;20220;-76
2023/06/12 01:32:02;;;;;;;6.57;5.40;;;17.50;99.90;;;;;;4147085;28;20593;-76
2023/06/12 01:34:12;;;;;;;7.27;5.23;;;17.40;99.90;;;;;;4147987;28;20233;-76
2023/06/12 01:36:20;;;;;;;7.90;5.00;;;17.40;99.90;;;;;;4144444;28;20571;-76
2023/06/12 01:38:24;;;;;;;7.20;5.13;;;17.30;99.90;;;;;;4144236;28;20216;-75
2023/06/12 01:40:27;;;;;;;6.47;5.10;;;17.30;99.90;;;;;;4143910;28;20302;-76
2023/06/12 01:42:30;;;;;;;8.40;5.07;;;17.30;99.90;;;;;;4145564;28;20214;-76
2023/06/12 01:44:33;;;;;;;5.93;4.50;;;17.30;99.90;;;;;;4145323;28;20257;-75
2023/06/12 01:46:36;;;;;;;9.17;5.53;;;17.20;99.90;;;;;;4145087;28;20253;-76
2023/06/12 01:48:40;;;;;;;6.40;4.60;;;17.20;99.90;;;;;;4147836;28;20201;-76
2023/06/12 01:50:42;;;;;;;6.10;5.00;;;17.10;99.90;;;;;;4148651;28;20231;-76
2023/06/12 01:52:45;;;;;;;5.97;4.97;;;17.10;99.90;;;;;;4149524;28;20235;-76
2023/06/12 01:54:48;;;;;;;9.57;5.37;;;17.10;99.90;;;;;;4143414;28;20239;-75
2023/06/12 01:56:50;;;;;;;7.60;5.60;;;17.10;99.90;;;;;;4147961;28;20214;-76
2023/06/12 01:58:52;;;;;;;8.63;4.90;;;17.10;99.90;;;;;;4148243;28;20211;-75
2023/06/12 02:00:55;;;;;;;6.87;5.17;;;17.00;99.90;;;;;;4150488;28;20307;-76
2023/06/12 02:02:57;;;;;;;8.37;5.10;;;17.00;99.90;;;;;;4153923;28;20206;-76
2023/06/12 02:05:01;;;;;;;6.50;5.07;;;16.90;99.90;;;;;;4152006;28;20236;-75
2023/06/12 02:07:04;;;;;;;6.47;4.80;;;16.90;99.90;;;;;;4150418;28;20327;-76
2023/06/12 02:09:06;;;;;;;8.87;4.77;;;16.90;99.90;;;;;;4148631;28;20208;-75
2023/06/12 02:11:08;;;;;;;7.60;4.70;;;16.90;99.90;;;;;;4148559;28;20289;-76
2023/06/12 02:13:10;;;;;;;7.87;5.20;;;16.80;99.90;;;;;;4149780;28;20222;-76
2023/06/12 02:15:12;;;;;;;6.40;4.83;;;16.80;99.90;;;;;;4152494;28;20764;-75
2023/06/12 02:17:17;;;;;;;6.77;4.77;;;16.80;99.90;;;;;;4150282;28;20269;-75
2023/06/12 02:19:22;;;;;;;6.20;4.83;;;16.70;99.90;;;;;;4151137;28;20266;-76
2023/06/12 02:21:25;;;;;;;7.10;5.00;;;16.70;99.90;;;;;;4149188;28;20212;-75
2023/06/12 02:23:27;;;;;;;8.70;5.27;;;16.70;99.90;;;;;;4149552;28;20220;-75
2023/06/12 02:25:29;;;;;;;7.30;5.07;;;16.60;99.90;;;;;;4156496;28;20606;-75
2023/06/12 02:27:31;;;;;;;8.07;5.17;;;16.60;99.90;;;;;;4153012;28;20322;-75
2023/06/12 02:29:33;;;;;;;9.83;5.27;;;16.60;99.90;;;;;;4151254;28;21189;-75
2023/06/12 02:31:34;;;;;;;7.37;4.97;;;16.60;99.90;;;;;;4152492;28;20548;-76
2023/06/12 02:33:37;;;;;;;6.97;5.20;;;16.60;99.90;;;;;;4151944;28;20224;-75
2023/06/12 02:35:39;;;;;;;8.20;5.20;;;16.50;99.90;;;;;;4152465;28;20235;-76
2023/06/12 02:37:42;;;;;;;7.03;5.00;;;16.60;99.90;;;;;;4151819;28;20215;-76
2023/06/12 02:39:44;;;;;;;7.67;5.17;;;16.50;99.90;;;;;;4148523;28;20619;-75
2023/06/12 02:41:47;;;;;;;7.57;5.70;;;16.50;99.90;;;;;;4147450;28;20654;-75
2023/06/12 02:43:49;;;;;;;7.23;5.20;;;16.40;99.90;;;;;;4147995;28;20215;-76
2023/06/12 02:45:51;;;;;;;6.97;4.60;;;16.40;99.90;;;;;;4149575;28;20218;-76
2023/06/12 02:47:53;;;;;;;7.03;5.07;;;16.40;99.90;;;;;;4151124;28;20203;-75
2023/06/12 02:49:55;;;;;;;6.93;4.80;;;16.40;99.90;;;;;;4153071;28;20217;-75
2023/06/12 02:51:57;;;;;;;8.17;5.03;;;16.30;99.90;;;;;;4149810;28;20214;-76
2023/06/12 02:54:01;;;;;;;6.47;4.97;;;16.30;99.90;;;;;;4152547;28;20721;-76
2023/06/12 02:56:02;;;;;;;7.97;5.17;;;16.30;99.90;;;;;;4149827;28;20297;-76
2023/06/12 02:58:05;;;;;;;7.23;4.70;;;16.30;99.90;;;;;;4154906;28;20221;-76
2023/06/12 03:00:08;;;;;;;7.07;4.73;;;16.20;99.90;;;;;;4153173;28;20693;-75
2023/06/12 03:02:11;;;;;;;8.20;5.00;;;16.20;99.90;;;;;;4149035;28;20239;-75
2023/06/12 03:04:15;;;;;;;5.97;4.70;;;16.20;99.90;;;;;;4150999;28;20780;-76
2023/06/12 03:06:18;;;;;;;8.00;4.70;;;16.10;99.90;;;;;;4149132;28;20226;-76
2023/06/12 03:08:20;;;;;;;7.10;4.73;;;16.10;99.90;;;;;;4151297;28;20559;-76
2023/06/12 03:10:24;;;;;;;6.97;4.63;;;16.10;99.90;;;;;;4153142;28;20208;-76
2023/06/12 03:12:26;;;;;;;9.20;4.80;;;16.00;99.90;;;;;;4151044;28;20587;-76
2023/06/12 03:14:30;;;;;;;7.03;4.43;;;16.00;99.90;;;;;;4149634;28;20255;-76
2023/06/12 03:16:32;;;;;;;6.47;4.87;;;16.00;99.90;;;;;;4152017;28;20307;-76
2023/06/12 03:18:34;;;;;;;6.07;4.63;;;15.90;99.90;;;;;;4149231;28;20286;-76
2023/06/12 03:20:36;;;;;;;6.20;4.60;;;15.90;99.90;;;;;;4152501;28;20213;-76
2023/06/12 03:22:38;;;;;;;7.40;4.47;;;15.90;99.90;;;;;;4151993;28;20581;-76
2023/06/12 03:24:39;;;;;;;5.70;4.30;;;15.80;99.90;;;;;;4153711;28;20674;-76
2023/06/12 03:26:43;;;;;;;6.40;4.57;;;15.90;99.90;;;;;;4151186;28;20353;-76
2023/06/12 03:28:46;;;;;;;7.23;4.40;;;15.80;99.90;;;;;;4151632;28;20234;-76
2023/06/12 03:30:48;;;;;;;6.47;4.23;;;15.80;99.90;;;;;;4154965;28;20261;-76
2023/06/12 03:32:52;;;;;;;7.73;4.90;;;15.70;99.90;;;;;;4147178;28;20215;-76
2023/06/12 03:34:54;;;;;;;9.20;4.60;;;15.70;99.90;;;;;;4148381;28;20282;-76
2023/06/12 03:36:56;;;;;;;5.80;4.50;;;15.60;99.90;;;;;;4146932;28;20208;-76
2023/06/12 03:38:58;;;;;;;7.00;4.40;;;15.70;99.90;;;;;;4150001;28;20256;-76
2023/06/12 03:41:00;;;;;;;6.63;4.60;;;15.60;99.90;;;;;;4151099;28;20210;-75
2023/06/12 03:43:03;;;;;;;5.97;4.60;;;15.60;99.90;;;;;;4152970;28;20220;-75
2023/06/12 03:45:06;;;;;;;5.03;4.00;;;15.60;99.90;;;;;;4146605;28;20241;-75
2023/06/12 03:47:08;;;;;;;6.57;4.73;;;15.60;99.90;;;;;;4147922;28;20744;-75
2023/06/12 03:49:10;;;;;;;7.37;4.37;;;15.60;99.90;;;;;;4153467;28;20908;-75
2023/06/12 03:51:12;;;;;;;5.87;4.30;;;15.50;99.90;;;;;;4148830;28;20215;-75
2023/06/12 03:53:14;;;;;;;6.73;4.67;;;15.50;99.90;;;;;;4149061;28;20219;-75
2023/06/12 03:55:16;;;;;;;9.77;4.80;;;15.50;99.90;;;;;;4149947;28;20230;-75
2023/06/12 03:57:20;;;;;;;6.50;4.17;;;15.50;99.90;;;;;;4153009;28;20286;-75
2023/06/12 03:59:23;;;;;;;6.13;4.37;;;15.50;99.90;;;;;;4152077;28;20222;-75
2023/06/12 04:01:25;;;;;;;7.10;4.43;;;15.50;99.90;;;;;;4150428;28;20276;-75
2023/06/12 04:03:27;;;;;;;6.77;3.90;;;15.40;99.90;;;;;;4150244;28;20243;-75
2023/06/12 04:05:30;;;;;;;8.30;4.63;;;15.50;99.90;;;;;;4147523;28;20230;-76
2023/06/12 04:07:32;;;;;;;6.10;4.20;;;15.40;99.90;;;;;;4147201;28;20775;-74
2023/06/12 04:09:34;;;;;;;10.57;5.07;;;15.50;99.90;;;;;;4151143;28;20218;-76
2023/06/12 04:11:38;;;;;;;7.47;4.27;;;15.40;99.90;;;;;;4148536;28;20219;-76
2023/06/12 04:13:43;;;;;;;6.30;4.37;;;15.40;99.90;;;;;;4145975;28;20855;-75
2023/06/12 04:15:47;;;;;;;7.47;5.17;;;15.40;99.90;;;;;;4145823;28;21101;-76
2023/06/12 04:17:49;;;;;;;6.47;4.50;;;15.40;99.90;;;;;;4147203;28;20691;-76
2023/06/12 04:19:51;;;;;;;7.80;4.50;;;15.40;99.90;;;;;;4148793;28;20676;-76
2023/06/12 04:21:54;;;;;;;8.43;4.20;;;15.40;99.90;;;;;;4149965;28;20199;-76
2023/06/12 04:23:56;;;;;;;6.63;4.43;;;15.40;99.90;;;;;;4147557;28;20221;-75
2023/06/12 04:26:04;;;;;;;6.17;4.27;;;15.40;99.90;;;;;;4146412;28;20760;-74
2023/06/12 04:28:07;;;;;;;7.43;5.20;;;15.40;99.90;;;;;;4149779;28;20235;-74
2023/06/12 04:30:10;;;;;;;8.37;5.03;;;15.40;99.90;;;;;;4148168;28;20218;-74
2023/06/12 04:32:15;;;;;;;7.53;4.30;;;15.40;99.90;;;;;;4152383;28;20688;-74
2023/06/12 04:34:18;;;;;;;9.53;5.07;;;15.40;99.90;;;;;;4143377;28;20328;-74
2023/06/12 04:36:21;;;;;;;7.40;4.53;;;15.40;99.90;;;;;;4150643;28;20214;-74
2023/06/12 04:38:23;;;;;;;7.03;4.50;;;15.40;99.90;;;;;;4143812;28;20620;-74
2023/06/12 04:40:26;;;;;;;6.73;4.87;;;15.50;99.90;;;;;;4146983;28;21516;-74
2023/06/12 04:42:31;;;;;;;6.37;4.10;;;15.50;99.90;;;;;;4146121;28;20219;-74
2023/06/12 04:44:34;;;;;;;5.60;4.17;;;15.50;99.90;;;;;;4151518;28;20660;-74
2023/06/12 04:46:36;;;;;;;7.93;5.03;;;15.50;99.90;;;;;;4146261;28;20236;-74
2023/06/12 04:48:41;;;;;;;7.53;4.70;;;15.50;99.90;;;;;;4146796;28;20284;-74
2023/06/12 04:50:44;;;;;;;7.27;4.77;;;15.50;99.90;;;;;;4145275;28;20214;-75
2023/06/12 04:52:47;;;;;;;6.07;4.13;;;15.60;99.90;;;;;;4148829;28;20278;-76
2023/06/12 04:54:49;;;;;;;9.83;4.60;;;15.60;99.90;;;;;;4148922;28;20265;-74
2023/06/12 04:56:52;;;;;;;5.93;4.20;;;15.60;99.90;;;;;;4145485;28;20275;-74
2023/06/12 04:58:54;;;;;;;6.70;4.23;;;15.60;99.90;;;;;;4148454;28;20208;-75
2023/06/12 05:00:56;;;;;;;6.57;4.00;;;15.60;99.90;;;;;;4147298;28;20669;-74
2023/06/12 05:02:58;;;;;;;5.90;3.83;;;15.70;99.90;;;;;;4146980;28;20761;-75
2023/06/12 05:05:02;;;;;;;6.90;3.67;;;15.70;99.90;;;;;;4146983;28;20233;-74
2023/06/12 05:07:06;;;;;;;5.30;3.60;;;15.80;99.90;;;;;;4150231;28;20232;-74
2023/06/12 05:09:08;;;;;;;6.83;3.60;;;15.80;99.90;;;;;;4146161;28;20208;-75
2023/06/12 05:11:10;;;;;;;4.87;3.77;;;15.90;99.90;;;;;;4147988;28;20587;-75
2023/06/12 05:13:14;;;;;;;7.23;3.70;;;16.00;99.90;;;;;;4143506;28;20250;-78
2023/06/12 05:15:16;;;;;;;5.77;3.53;;;15.90;99.90;;;;;;4147173;28;20223;-76
2023/06/12 05:17:18;;;;;;;5.10;3.33;;;16.00;99.90;;;;;;4145230;28;20237;-77
2023/06/12 05:19:20;;;;;;;5.93;3.47;;;16.00;99.90;;;;;;4151287;28;20434;-73
2023/06/12 05:21:24;;;;;;;5.87;3.93;;;16.10;99.90;;;;;;4148918;28;20892;-73
2023/06/12 05:23:26;;;;;;;7.27;3.83;;;16.10;99.90;;;;;;4150451;28;20204;-73
2023/06/12 05:25:28;;;;;;;5.07;3.60;;;16.20;99.90;;;;;;4145559;28;20362;-75
2023/06/12 05:27:29;;;;;;;5.03;3.87;;;16.10;99.90;;;;;;4145812;28;20329;-74
2023/06/12 05:29:31;;;;;;;7.37;4.13;;;16.10;99.90;;;;;;4150951;28;20241;-75
2023/06/12 05:31:36;;;;;;;5.17;3.87;;;16.20;99.90;;;;;;4139512;28;20638;-75
2023/06/12 05:33:41;;;;;;;6.10;3.90;;;16.10;99.90;;;;;;4145337;28;20226;-75
2023/06/12 05:35:44;;;;;;;7.57;3.70;;;16.20;99.90;;;;;;4145790;28;21322;-75
2023/06/12 05:37:47;;;;;;;5.07;3.53;;;16.20;99.90;;;;;;4148251;28;20213;-78
2023/06/12 05:39:49;;;;;;;5.67;3.87;;;16.20;99.90;;;;;;4147913;28;20298;-73
2023/06/12 05:41:51;;;;;;;5.87;4.03;;;16.20;99.90;;;;;;4144289;28;20211;-75
2023/06/12 05:43:53;;;;;;;5.93;3.77;;;16.20;99.90;;;;;;4147211;28;20843;-73
2023/06/12 05:45:55;;;;;;;7.93;3.83;;;16.20;99.90;;;;;;4139099;28;20208;-74
2023/06/12 05:47:57;;;;;;;7.27;3.53;;;16.30;99.90;;;;;;4139874;28;20300;-73
2023/06/12 05:49:59;;;;;;;5.70;3.70;;;16.30;99.90;;;;;;4148503;28;20211;-73
2023/06/12 05:52:02;;;;;;;5.27;3.10;;;16.30;99.90;;;;;;4146321;28;20235;-73
2023/06/12 05:54:05;;;;;;;5.80;3.20;;;16.40;99.90;;;;;;4147471;28;20274;-73
2023/06/12 05:56:07;;;;;;;5.20;3.20;;;16.50;99.90;;;;;;4150535;28;20239;-73
2023/06/12 05:58:09;;;;;;;4.13;3.10;;;16.50;99.90;;;;;;4148140;28;20282;-74
2023/06/12 06:00:13;;;;;;;4.33;3.20;;;16.50;99.90;;;;;;4145884;28;20303;-74
2023/06/12 06:02:15;;;;;;;6.90;3.23;;;16.60;99.90;;;;;;4145059;28;20594;-74
2023/06/12 06:04:17;;;;;;;6.53;3.43;;;16.60;99.90;;;;;;4148673;28;20316;-75
2023/06/12 06:06:19;;;;;;;5.80;3.20;;;16.70;99.90;;;;;;4145905;28;20583;-73
2023/06/12 06:08:21;;;;;;;4.50;2.97;;;16.70;99.90;;;;;;4144157;28;20230;-73
2023/06/12 06:10:26;;;;;;;6.23;3.40;;;16.80;99.90;;;;;;4153022;28;20281;-75
2023/06/12 06:12:28;;;;;;;6.50;2.93;;;16.80;99.90;;;;;;4146015;28;20216;-74
2023/06/12 06:14:30;;;;;;;6.67;2.60;;;16.90;99.90;;;;;;4149753;28;20235;-73
2023/06/12 06:16:32;;;;;;;6.20;3.20;;;16.90;99.90;;;;;;4147643;28;20208;-74
2023/06/12 06:18:34;;;;;;;4.33;3.10;;;16.90;99.90;;;;;;4146920;28;20211;-72
2023/06/12 06:20:36;;;;;;;4.27;3.23;;;17.00;99.90;;;;;;4145146;28;20239;-72
2023/06/12 06:22:38;;;;;;;4.97;3.30;;;17.00;99.90;;;;;;4145398;28;20216;-73
2023/06/12 06:24:41;;;;;;;4.10;3.10;;;17.00;99.90;;;;;;4146635;28;20603;-75
2023/06/12 06:26:44;;;;;;;6.33;3.20;;;17.10;99.90;;;;;;4145825;28;20215;-74
2023/06/12 06:28:46;;;;;;;4.43;3.20;;;17.10;99.90;;;;;;4142334;28;20224;-73
2023/06/12 06:30:48;;;;;;;4.77;2.70;;;17.20;99.90;;;;;;4147162;28;20250;-72
2023/06/12 06:32:50;;;;;;;4.37;3.00;;;17.20;99.90;;;;;;4151218;28;20301;-72
2023/06/12 06:34:52;;;;;;;4.40;2.83;;;17.30;99.90;;;;;;4144882;28;20240;-72
2023/06/12 06:36:55;;;;;;;4.43;2.63;;;17.30;99.90;;;;;;4149573;28;20305;-72
2023/06/12 06:38:57;;;;;;;7.77;3.23;;;17.30;99.90;;;;;;4144516;28;21072;-73
2023/06/12 06:41:00;;;;;;;3.80;2.97;;;17.40;99.90;;;;;;4148580;28;20217;-73
2023/06/12 06:43:03;;;;;;;4.37;3.00;;;17.40;99.90;;;;;;4150537;28;20217;-72
2023/06/12 06:45:06;;;;;;;9.23;3.60;;;17.50;99.90;;;;;;4146965;28;20323;-73
2023/06/12 06:47:09;;;;;;;4.63;3.23;;;17.50;99.90;;;;;;4145268;28;20219;-73
2023/06/12 06:49:11;;;;;;;5.97;3.40;;;17.60;99.90;;;;;;4145545;28;20734;-75
2023/06/12 06:51:13;;;;;;;6.37;3.53;;;17.70;99.90;;;;;;4151828;28;20222;-73
2023/06/12 06:53:17;;;;;;;3.83;3.10;;;17.70;99.90;;;;;;4147767;28;20311;-73
2023/06/12 06:55:19;;;;;;;5.57;3.37;;;17.80;99.90;;;;;;4147170;28;20744;-74
2023/06/12 06:57:23;;;;;;;5.20;3.40;;;17.80;99.90;;;;;;4145233;28;20237;-74
2023/06/12 06:59:26;;;;;;;5.20;3.13;;;17.90;99.90;;;;;;4153111;28;20592;-73
2023/06/12 07:01:29;;;;;;;5.93;3.40;;;17.90;99.90;;;;;;4151419;28;20220;-75
2023/06/12 07:03:31;;;;;;;4.83;3.40;;;18.00;99.90;;;;;;4142864;28;20236;-75
2023/06/12 07:05:33;;;;;;;6.50;4.03;;;18.00;99.90;;;;;;4149690;28;20238;-73
2023/06/12 07:07:38;;;;;;;5.10;3.40;;;18.10;99.90;;;;;;4148352;28;20228;-73
2023/06/12 07:09:40;;;;;;;6.43;3.60;;;18.20;99.90;;;;;;4147559;28;21026;-72
2023/06/12 07:11:42;;;;;;;4.30;2.97;;;18.20;99.90;;;;;;4147427;28;20246;-73
2023/06/12 07:13:43;;;;;;;5.43;3.20;;;18.30;99.90;;;;;;4151090;28;21025;-73
2023/06/12 07:15:47;;;;;;;10.43;3.50;;;18.30;99.90;;;;;;4149729;28;20250;-74
2023/06/12 07:17:49;;;;;;;4.53;3.27;;;18.40;99.90;;;;;;4147300;28;20246;-72
2023/06/12 07:19:51;;;;;;;6.13;3.47;;;18.50;99.90;;;;;;4150222;28;20222;-73
2023/06/12 07:21:53;;;;;;;5.47;3.40;;;18.60;99.90;;;;;;4148970;28;20321;-74
2023/06/12 07:23:55;;;;;;;7.10;4.00;;;18.70;99.90;;;;;;4149993;28;20582;-73
2023/06/12 07:25:56;;;;;;;4.00;3.53;;;18.70;99.90;;;;;;4148170;28;20210;-76
2023/06/12 07:27:58;;;;;;;5.83;3.73;;;18.80;99.90;;;;;;4150980;28;20334;-75
2023/06/12 07:30:00;;;;;;;7.07;3.53;;;18.80;99.90;;;;;;4156833;28;20664;-74
2023/06/12 07:32:04;;;;;;;6.10;3.63;;;18.90;99.90;;;;;;4146722;28;20210;-73
2023/06/12 07:34:06;;;;;;;5.30;3.30;;;19.00;99.90;;;;;;4150792;28;20236;-75
2023/06/12 07:36:08;;;;;;;5.33;3.60;;;19.10;99.90;;;;;;4147783;28;20238;-74
2023/06/12 07:38:11;;;;;;;5.57;3.37;;;19.10;99.90;;;;;;4149564;28;20237;-74
2023/06/12 07:40:13;;;;;;;4.40;3.30;;;19.20;99.90;;;;;;4147066;28;20211;-76
2023/06/12 07:42:15;;;;;;;6.00;3.67;;;19.20;99.90;;;;;;4146952;28;20219;-74
2023/06/12 07:44:17;;;;;;;5.87;3.53;;;19.30;99.90;;;;;;4150637;28;20235;-74
2023/06/12 07:46:19;;;;;;;6.67;3.27;;;19.30;99.90;;;;;;4148657;28;20306;-75
2023/06/12 07:48:22;;;;;;;5.63;2.97;;;19.40;99.90;;;;;;4151837;28;20262;-76
2023/06/12 07:50:24;;;;;;;4.87;3.50;;;19.50;99.90;;;;;;4150145;28;20215;-73
2023/06/12 07:52:26;;;;;;;4.27;3.63;;;19.50;99.90;;;;;;4151438;28;20916;-76
2023/06/12 07:54:31;;;;;;;6.53;3.33;;;19.60;99.90;;;;;;4148267;28;20230;-75
2023/06/12 07:56:33;;;;;;;5.00;3.20;;;19.60;99.90;;;;;;4145937;28;20221;-75
2023/06/12 07:58:36;;;;;;;5.97;3.70;;;19.70;99.90;;;;;;4145689;28;20211;-73
2023/06/12 08:00:39;;;;;;;6.13;3.77;;;19.90;99.90;;;;;;4146317;28;20221;-75
2023/06/12 08:02:41;;;;;;;5.10;3.27;;;19.90;99.90;;;;;;4149793;28;20258;-75
2023/06/12 08:04:44;;;;;;;5.87;3.70;;;19.90;99.90;;;;;;4147834;28;20288;-74
2023/06/12 08:06:47;;;;;;;5.27;3.83;;;20.00;99.90;;;;;;4149680;28;20258;-75
2023/06/12 08:08:49;;;;;;;5.30;3.83;;;20.10;99.90;;;;;;4149517;28;20310;-75
2023/06/12 08:10:51;;;;;;;6.00;3.80;;;20.20;99.90;;;;;;4147416;28;20307;-75
2023/06/12 08:12:53;;;;;;;5.40;3.50;;;20.30;99.90;;;;;;4145782;28;20238;-75
2023/06/12 08:14:55;;;;;;;6.53;3.27;;;20.40;99.90;;;;;;4148929;28;20238;-74
2023/06/12 08:16:58;;;;;;;7.00;3.37;;;20.40;99.90;;;;;;4146635;28;20216;-75
2023/06/12 08:19:00;;;;;;;5.47;3.27;;;20.50;99.90;;;;;;4148266;28;20303;-74
2023/06/12 08:21:04;;;;;;;4.90;3.30;;;20.60;98.70;;;;;;4147575;28;20219;-73
2023/06/12 08:23:06;;;;;;;6.10;3.33;;;20.70;99.90;;;;;;4148832;28;20298;-73
2023/06/12 08:25:08;;;;;;;5.33;3.40;;;20.70;99.70;;;;;;4148131;28;20238;-74
2023/06/12 08:27:11;;;;;;;5.83;3.23;;;20.80;96.90;;;;;;4148275;28;20210;-76
2023/06/12 08:29:13;;;;;;;6.00;3.40;;;20.90;99.50;;;;;;4149767;28;20281;-74
2023/06/12 08:31:14;;;;;;;5.30;3.40;;;20.90;99.90;;;;;;4149551;28;20215;-75
2023/06/12 08:33:18;;;;;;;7.00;3.37;;;21.00;99.90;;;;;;4147931;28;20208;-75
2023/06/12 08:35:20;;;;;;;4.53;3.27;;;21.10;92.20;;;;;;4147026;28;20593;-74
2023/06/12 08:37:24;;;;;;;6.20;3.53;;;21.20;87.90;;;;;;4149073;28;20239;-74
2023/06/12 08:39:26;;;;;;;5.60;3.17;;;21.30;78.60;;;;;;4148132;28;20309;-74
2023/06/12 08:41:31;;;;;;;4.93;3.30;;;21.30;88.00;;;;;;4148279;28;20215;-73
2023/06/12 08:43:34;;;;;;;6.27;2.77;;;21.40;77.90;;;;;;4148635;28;20326;-75
2023/06/12 08:45:42;;;;;;;4.30;2.90;;;21.50;68.40;;;;;;4147813;28;20222;-75
2023/06/12 08:47:48;;;;;;;4.10;2.70;;;21.60;75.70;;;;;;4150978;28;20270;-74
2023/06/12 08:49:50;;;;;;;7.90;2.90;;;21.70;50.70;;;;;;4144902;28;20209;-73
2023/06/12 08:51:52;;;;;;;5.47;2.80;;;21.70;55.00;;;;;;4152439;28;20200;-74
2023/06/12 08:53:57;;;;;;;6.97;3.33;;;21.80;57.10;;;;;;4152418;28;20583;-74
2023/06/12 08:55:59;;;;;;;8.07;3.10;;;21.90;52.60;;;;;;4149512;28;20298;-73
2023/06/12 08:58:02;;;;;;;5.67;3.20;;;22.00;51.40;;;;;;4149840;28;20304;-77
2023/06/12 09:00:10;;;;;;;4.00;2.67;;;22.00;51.40;;;;;;4149176;28;20207;-73
2023/06/12 09:02:13;;;;;;;4.30;3.07;;;22.10;51.30;;;;;;4146657;28;20208;-73
2023/06/12 09:04:26;;;;;;;6.70;2.67;;;22.20;49.80;;;;;;4144482;28;20717;-74
2023/06/12 09:06:34;;;;;;;4.13;3.03;;;22.20;52.30;;;;;;4148828;28;20212;-75
2023/06/12 09:08:38;;;;;;;3.90;2.93;;;22.30;46.40;;;;;;4149857;28;20687;-73
2023/06/12 09:10:41;;;;;;;5.20;2.70;;;22.40;45.60;;;;;;4147137;28;20213;-73
2023/06/12 09:12:45;;;;;;;5.87;2.73;;;22.40;45.50;;;;;;4147814;28;20208;-74
2023/06/12 09:14:48;;;;;;;5.40;3.30;;;22.50;50.60;;;;;;4147456;28;21021;-74
2023/06/12 09:16:50;;;;;;;3.50;2.80;;;22.60;49.40;;;;;;4149344;28;20218;-78
2023/06/12 09:18:53;;;;;;;6.30;2.67;;;22.60;45.60;;;;;;4150448;28;20217;-75
2023/06/12 09:20:56;;;;;;;5.97;2.90;;;22.70;53.50;;;;;;4145504;28;20221;-74
2023/06/12 09:22:59;;;;;;;6.97;2.90;;;22.80;47.40;;;;;;4150110;28;20220;-76
2023/06/12 09:25:06;;;;;;;4.93;2.90;;;22.80;46.90;;;;;;4147289;28;20234;-73
2023/06/12 09:27:11;;;;;;;4.67;2.80;;;22.90;45.00;;;;;;4149919;28;20752;-72
2023/06/12 09:29:12;;;;;;;5.87;3.00;;;23.00;42.30;;;;;;4148814;28;20237;-75
2023/06/12 09:31:16;;;;;;;3.40;2.70;;;23.10;43.40;;;;;;4147235;28;20235;-76
2023/06/12 09:33:22;;;;;;;3.70;2.50;;;23.20;41.00;;;;;;4144720;28;20217;-73
2023/06/12 09:35:24;;;;;;;3.70;2.70;;;23.20;41.80;;;;;;4148620;28;20245;-73
2023/06/12 09:37:27;;;;;;;4.47;2.60;;;23.30;44.50;;;;;;4151696;28;20253;-73
2023/06/12 09:39:33;;;;;;;4.93;2.97;;;23.30;41.90;;;;;;4146555;28;20254;-73
2023/06/12 09:41:36;;;;;;;5.40;2.77;;;23.40;42.30;;;;;;4147390;28;20222;-75
2023/06/12 09:43:39;;;;;;;4.47;3.00;;;23.50;41.50;;;;;;4141730;28;20344;-73
2023/06/12 09:45:48;;;;;;;4.43;3.10;;;23.60;38.50;;;;;;4145084;28;20250;-73
2023/06/12 09:47:52;;;;;;;4.77;2.70;;;23.60;38.80;;;;;;4149527;28;20217;-73
2023/06/12 09:49:54;;;;;;;5.57;2.80;;;23.70;36.70;;;;;;4145593;28;20254;-73
2023/06/12 09:51:56;;;;;;;6.53;2.90;;;23.80;37.80;;;;;;4147408;28;20226;-74
2023/06/12 09:54:00;;;;;;;3.43;2.53;;;23.80;37.10;;;;;;4149780;28;20629;-73
2023/06/12 09:56:03;;;;;;;4.10;2.20;;;23.90;38.90;;;;;;4154705;28;20254;-75
2023/06/12 09:58:07;;;;;;;3.87;2.93;;;23.90;38.90;;;;;;4154280;28;20724;-72
2023/06/12 10:00:15;;;;;;;6.30;2.80;;;24.00;38.60;;;;;;4147824;28;20242;-72
2023/06/12 10:02:18;;;;;;;4.73;3.10;;;24.10;39.20;;;;;;4158849;28;20234;-72
2023/06/12 10:04:29;;;;;;;3.87;2.97;;;24.20;36.90;;;;;;4151805;28;20260;-73
2023/06/12 10:06:34;;;;;;;4.77;3.10;;;24.30;35.40;;;;;;4151205;28;21020;-72
2023/06/12 10:08:36;;;;;;;4.17;2.90;;;24.30;34.70;;;;;;4157596;28;20227;-73
2023/06/12 10:10:41;;;;;;;6.53;3.10;;;24.50;34.20;;;;;;4155413;28;20200;-74
2023/06/12 10:12:44;;;;;;;4.90;3.40;;;24.50;35.10;;;;;;4153866;28;20279;-74
2023/06/12 10:14:46;;;;;;;4.47;3.00;;;24.60;34.20;;;;;;4153338;28;20239;-73
2023/06/12 10:16:51;;;;;;;4.70;3.30;;;24.70;34.70;;;;;;4151570;28;20203;-73
2023/06/12 10:18:53;;;;;;;4.67;3.30;;;24.80;34.80;;;;;;4147138;28;20201;-72
2023/06/12 10:20:55;;;;;;;5.20;3.13;;;24.90;36.00;;;;;;4148489;28;20686;-71
2023/06/12 10:22:57;;;;;;;7.97;3.57;;;25.00;34.70;;;;;;4145633;28;20215;-72
2023/06/12 10:25:01;;;;;;;6.17;3.50;;;25.10;34.20;;;;;;4148676;28;20235;-71
2023/06/12 10:27:05;;;;;;;5.00;3.60;;;25.20;33.90;;;;;;4147719;28;20214;-72
2023/06/12 10:29:25;;;;;;;4.63;3.13;;;25.30;33.70;;;;;;4146638;28;20660;-71
2023/06/12 10:31:29;;;;;;;4.00;3.10;;;25.40;35.50;;;;;;4144406;28;21017;-72
2023/06/12 10:33:32;;;;;;;9.40;3.23;;;25.50;34.50;;;;;;4149422;28;20665;-73
2023/06/12 10:35:35;;;;;;;5.03;3.40;;;25.50;33.90;;;;;;4145244;28;20239;-72
2023/06/12 10:37:42;;;;;;;4.20;3.47;;;25.60;35.60;;;;;;4147593;28;20718;-72
2023/06/12 10:39:47;;;;;;;6.40;3.53;;;25.80;34.60;;;;;;4144619;28;20665;-73
2023/06/12 10:41:54;;;;;;;4.13;3.43;;;25.90;35.00;;;;;;4147222;28;20226;-71